Time;durP1;ratioP1;P1;durP2;ratioP2;P2;SDS_P1;SDS_P2;PMS_P1;PMS_P2;Temp;Humidity;BMP_temperature;BMP_pressure;BME280_temperature;BME280_humidity;BME280_pressure;Samples;Min_cycle;Max_cycle;Signal;HPM_P1;HPM_P2
2022/08/21 00:01:37;;;;;;;12.95;11.65;;;;;;;-142.91;100.00;56616.03;5028987;28;20708;-64
2022/08/21 00:04:06;;;;;;;15.85;11.63;;;;;;;-142.91;100.00;56616.03;5023553;28;20348;-63
2022/08/21 00:06:33;;;;;;;14.20;11.48;;;;;;;-142.91;100.00;56616.03;5028087;28;20214;-65
2022/08/21 00:09:00;;;;;;;19.52;11.63;;;;;;;-142.91;100.00;56616.03;5026074;28;20202;-64
2022/08/21 00:11:27;;;;;;;16.27;11.00;;;;;;;-142.91;100.00;56616.03;5025070;28;20202;-64
2022/08/21 00:13:56;;;;;;;16.73;12.00;;;;;;;-142.91;100.00;56616.03;5027122;28;20202;-62
2022/08/21 00:16:23;;;;;;;14.30;11.07;;;;;;;-142.91;100.00;56616.03;5028205;28;20804;-64
2022/08/21 00:18:49;;;;;;;18.85;14.25;;;;;;;-142.91;100.00;56616.03;5026380;28;20242;-62
2022/08/21 00:21:16;;;;;;;30.92;24.85;;;;;;;-142.91;100.00;56616.03;5030502;28;21288;-65
2022/08/21 00:23:44;;;;;;;18.63;14.77;;;;;;;-142.91;100.00;56616.03;5028816;28;20317;-66
2022/08/21 00:26:11;;;;;;;22.40;12.48;;;;;;;-142.91;100.00;56616.03;5030196;28;20252;-61
2022/08/21 00:28:37;;;;;;;13.18;11.73;;;;;;;-142.91;100.00;56616.03;5027259;28;20211;-62
2022/08/21 00:31:06;;;;;;;14.32;12.90;;;;;;;-142.91;100.00;56616.03;5022651;28;20210;-62
2022/08/21 00:33:33;;;;;;;14.27;12.70;;;;;;;-142.91;100.00;56616.03;5022928;28;20217;-62
2022/08/21 00:36:00;;;;;;;13.90;11.98;;;;;;;-142.91;100.00;56616.03;5029116;28;20206;-62
2022/08/21 00:38:27;;;;;;;14.13;11.65;;;;;;;-142.91;100.00;56616.03;5024751;28;20219;-61
2022/08/21 00:40:56;;;;;;;17.70;12.40;;;;;;;-142.91;100.00;56616.03;5026947;28;20206;-63
2022/08/21 00:43:25;;;;;;;15.70;12.05;;;;;;;-142.91;100.00;56616.03;5026797;28;22397;-64
2022/08/21 00:45:52;;;;;;;19.45;13.30;;;;;;;-142.91;100.00;56616.03;5028583;28;20214;-64
2022/08/21 00:48:21;;;;;;;18.75;13.20;;;;;;;-142.91;100.00;56616.03;5029044;28;21676;-65
2022/08/21 00:50:53;;;;;;;18.42;13.45;;;;;;;-142.91;100.00;56616.03;5025438;28;20391;-65
2022/08/21 00:53:20;;;;;;;21.02;14.50;;;;;;;-142.91;100.00;56616.03;5023912;28;20226;-65
2022/08/21 00:55:47;;;;;;;25.15;17.05;;;;;;;-142.91;100.00;56616.03;5027111;28;20326;-65
2022/08/21 00:58:16;;;;;;;26.65;20.65;;;;;;;-142.91;100.00;56616.03;5027324;28;20324;-64
2022/08/21 01:00:47;;;;;;;17.67;15.02;;;;;;;-142.91;100.00;56616.03;5026698;28;20589;-64
2022/08/21 01:03:17;;;;;;;15.23;12.23;;;;;;;-142.91;100.00;56616.03;5025352;28;20206;-61
2022/08/21 01:05:46;;;;;;;15.60;14.00;;;;;;;-142.91;100.00;56616.03;5024463;28;20292;-63
2022/08/21 01:08:14;;;;;;;12.25;10.68;;;;;;;-142.91;100.00;56616.03;5029378;28;20211;-61
2022/08/21 01:10:42;;;;;;;14.07;10.98;;;;;;;-142.91;100.00;56616.03;5027559;28;20202;-63
2022/08/21 01:13:11;;;;;;;15.18;10.88;;;;;;;-142.91;100.00;56616.03;5021225;28;20229;-62
2022/08/21 01:15:43;;;;;;;13.93;11.68;;;;;;;-142.91;100.00;56616.03;5023378;28;20334;-63
2022/08/21 01:18:11;;;;;;;11.73;10.60;;;;;;;-142.91;100.00;56616.03;5028202;28;20202;-64
2022/08/21 01:20:39;;;;;;;14.10;11.50;;;;;;;-142.91;100.00;56616.03;5020351;28;20667;-63
2022/08/21 01:23:08;;;;;;;12.13;10.35;;;;;;;-142.91;100.00;56616.03;5017694;28;20623;-65
2022/08/21 01:25:35;;;;;;;11.65;10.15;;;;;;;-142.91;100.00;56616.03;5025594;28;20339;-63
2022/08/21 01:28:13;;;;;;;11.43;10.27;;;;;;;-142.91;100.00;56616.03;5024614;28;20355;-63
2022/08/21 01:30:43;;;;;;;13.43;9.85;;;;;;;-142.91;100.00;56616.03;5028763;28;20210;-64
2022/08/21 01:33:10;;;;;;;13.32;11.02;;;;;;;-142.91;100.00;56616.03;5028055;28;20210;-63
2022/08/21 01:35:37;;;;;;;13.45;10.70;;;;;;;-142.91;100.00;56616.03;5026865;28;20202;-65
2022/08/21 01:38:05;;;;;;;11.85;10.55;;;;;;;-142.91;100.00;56616.03;5023674;28;20214;-63
2022/08/21 01:40:33;;;;;;;10.77;8.85;;;;;;;-142.91;100.00;56616.03;5028793;28;20688;-65
2022/08/21 01:43:00;;;;;;;12.85;10.20;;;;;;;-142.91;100.00;56616.03;5028854;28;20215;-63
2022/08/21 01:45:26;;;;;;;13.38;10.02;;;;;;;-142.91;100.00;56616.03;5026651;28;20307;-61
2022/08/21 01:47:53;;;;;;;12.82;10.25;;;;;;;-142.91;100.00;56616.03;5029229;28;20199;-63
2022/08/21 01:50:21;;;;;;;10.02;9.23;;;;;;;-142.91;100.00;56616.03;5028377;28;20214;-64
2022/08/21 01:52:49;;;;;;;16.25;9.85;;;;;;;-142.91;100.00;56616.03;5026759;28;20870;-63
2022/08/21 01:55:18;;;;;;;12.20;9.30;;;;;;;-142.91;100.00;56616.03;5024888;28;20632;-62
2022/08/21 01:57:47;;;;;;;11.18;9.55;;;;;;;-142.91;100.00;56616.03;5026551;28;20602;-64
2022/08/21 02:00:17;;;;;;;9.45;8.50;;;;;;;-142.91;100.00;56616.03;5024391;28;20210;-64
2022/08/21 02:02:45;;;;;;;8.18;7.47;;;;;;;-142.91;100.00;56616.03;5024239;28;20206;-64
2022/08/21 02:05:13;;;;;;;7.03;6.30;;;;;;;-142.91;100.00;56616.03;5022853;28;20254;-64
2022/08/21 02:07:42;;;;;;;11.18;5.90;;;;;;;-142.91;100.00;56616.03;5025229;28;20240;-62
2022/08/21 02:10:11;;;;;;;7.20;6.63;;;;;;;-142.91;100.00;56616.03;5025053;28;20288;-64
2022/08/21 02:12:37;;;;;;;11.07;6.82;;;;;;;-142.91;100.00;56616.03;5023549;28;20371;-64
2022/08/21 02:15:08;;;;;;;7.35;6.47;;;;;;;-142.91;100.00;56616.03;5022930;28;20811;-65
2022/08/21 02:17:41;;;;;;;13.80;6.80;;;;;;;-142.91;100.00;56616.03;5025809;28;20293;-64
2022/08/21 02:20:09;;;;;;;8.00;6.80;;;;;;;-142.91;100.00;56616.03;5027046;28;20217;-66
2022/08/21 02:22:36;;;;;;;7.10;6.47;;;;;;;-142.91;100.00;56616.03;5025513;28;20245;-64
2022/08/21 02:25:03;;;;;;;10.80;7.13;;;;;;;-142.91;100.00;56616.03;5025703;28;20225;-64
2022/08/21 02:27:30;;;;;;;7.65;6.75;;;;;;;-142.91;100.00;56616.03;5026565;28;20206;-64
2022/08/21 02:29:58;;;;;;;16.52;7.25;;;;;;;-142.91;100.00;56616.03;5028869;28;21377;-66
2022/08/21 02:32:27;;;;;;;9.10;7.55;;;;;;;-142.91;100.00;56616.03;5027880;28;20214;-64
2022/08/21 02:34:54;;;;;;;8.05;6.82;;;;;;;-142.91;100.00;56616.03;5026399;28;21229;-63
2022/08/21 02:37:21;;;;;;;10.27;7.75;;;;;;;-142.91;100.00;56616.03;5026242;28;20206;-66
2022/08/21 02:39:47;;;;;;;7.70;6.95;;;;;;;-142.91;100.00;56616.03;5027359;28;20198;-64
2022/08/21 02:42:14;;;;;;;11.48;8.63;;;;;;;-142.91;100.00;56616.03;5027108;28;20209;-64
2022/08/21 02:44:41;;;;;;;10.48;7.35;;;;;;;-142.91;100.00;56616.03;5026760;28;20315;-66
2022/08/21 02:47:08;;;;;;;8.45;7.57;;;;;;;-142.91;100.00;56616.03;5026845;28;20206;-62
2022/08/21 02:49:36;;;;;;;15.30;9.85;;;;;;;-142.91;100.00;56616.03;5026555;28;20595;-65
2022/08/21 02:52:05;;;;;;;12.15;9.85;;;;;;;-142.91;100.00;56616.03;5027338;28;20570;-65
2022/08/21 02:54:32;;;;;;;11.32;9.38;;;;;;;-142.91;100.00;56616.03;5026120;28;20206;-63
2022/08/21 02:56:59;;;;;;;11.02;8.88;;;;;;;-142.91;100.00;56616.03;5025685;28;20221;-63
2022/08/21 02:59:25;;;;;;;9.52;8.63;;;;;;;-142.91;100.00;56616.03;5026742;28;20210;-65
2022/08/21 03:01:52;;;;;;;8.73;7.85;;;;;;;-142.91;100.00;56616.03;5026769;28;20256;-64
2022/08/21 03:04:19;;;;;;;8.82;8.13;;;;;;;-142.91;100.00;56616.03;5027969;28;20776;-64
2022/08/21 03:06:48;;;;;;;17.20;9.93;;;;;;;-142.91;100.00;56616.03;5025503;28;20229;-62
2022/08/21 03:09:14;;;;;;;11.15;9.98;;;;;;;-142.91;100.00;56616.03;5026112;28;20249;-65
2022/08/21 03:11:41;;;;;;;9.82;8.85;;;;;;;-142.91;100.00;56616.03;5027181;28;20279;-64
2022/08/21 03:14:08;;;;;;;11.27;10.30;;;;;;;-142.91;100.00;56616.03;5026555;28;20653;-62
2022/08/21 03:16:35;;;;;;;10.70;9.70;;;;;;;-142.91;100.00;56616.03;5025830;28;20383;-62
2022/08/21 03:19:02;;;;;;;13.40;10.57;;;;;;;-142.91;100.00;56616.03;5025638;28;21755;-61
2022/08/21 03:21:28;;;;;;;20.05;10.77;;;;;;;-142.91;100.00;56616.03;5023183;28;20695;-63
2022/08/21 03:23:57;;;;;;;13.25;9.40;;;;;;;-142.91;100.00;56616.03;5025723;28;20206;-65
2022/08/21 03:26:24;;;;;;;11.18;10.02;;;;;;;-142.91;100.00;56616.03;5025748;28;20278;-65
2022/08/21 03:28:50;;;;;;;9.05;8.15;;;;;;;-142.91;100.00;56616.03;5024815;28;20210;-65
2022/08/21 03:31:18;;;;;;;10.18;8.68;;;;;;;-142.91;100.00;56616.03;5026307;28;20240;-64
2022/08/21 03:33:45;;;;;;;10.90;8.93;;;;;;;-142.91;100.00;56616.03;5027277;28;20285;-65
2022/08/21 03:36:13;;;;;;;11.93;8.32;;;;;;;-142.91;100.00;56616.03;5027840;28;20206;-65
2022/08/21 03:38:40;;;;;;;13.07;8.73;;;;;;;-142.91;100.00;56616.03;5026615;28;20343;-65
2022/08/21 03:41:09;;;;;;;15.02;9.55;;;;;;;-142.91;100.00;56616.03;5028190;28;20209;-65
2022/08/21 03:43:36;;;;;;;12.27;9.93;;;;;;;-142.91;100.00;56616.03;5024797;28;20230;-64
2022/08/21 03:46:04;;;;;;;12.55;9.25;;;;;;;-142.91;100.00;56616.03;5024579;28;20249;-64
2022/08/21 03:48:31;;;;;;;10.77;9.75;;;;;;;-142.91;100.00;56616.03;5025749;28;20218;-62
2022/08/21 03:50:58;;;;;;;12.95;10.85;;;;;;;-142.91;100.00;56616.03;5026341;28;20210;-64
2022/08/21 03:53:26;;;;;;;15.73;12.38;;;;;;;-142.91;100.00;56616.03;5023350;28;20267;-65
2022/08/21 03:55:54;;;;;;;14.60;13.15;;;;;;;-142.91;100.00;56616.03;5026813;28;20233;-63
2022/08/21 03:58:24;;;;;;;18.10;13.48;;;;;;;-142.91;100.00;56616.03;5022409;28;20299;-64
2022/08/21 04:00:55;;;;;;;18.90;16.15;;;;;;;-142.91;100.00;56616.03;5026660;28;20210;-65
2022/08/21 04:03:22;;;;;;;21.70;16.08;;;;;;;-142.91;100.00;56616.03;5026163;28;20386;-63
2022/08/21 04:05:49;;;;;;;31.42;25.92;;;;;;;-142.91;100.00;56616.03;5024845;28;20696;-64
2022/08/21 04:08:18;;;;;;;25.10;22.40;;;;;;;-142.91;100.00;56616.03;5025285;28;22233;-64
2022/08/21 04:10:47;;;;;;;28.42;22.48;;;;;;;-142.91;100.00;56616.03;5023691;28;21223;-61
2022/08/21 04:13:15;;;;;;;27.50;20.92;;;;;;;-142.91;100.00;56616.03;5026454;28;20248;-63
2022/08/21 04:15:43;;;;;;;24.75;19.83;;;;;;;-142.91;100.00;56616.03;5026778;28;20207;-65
2022/08/21 04:18:10;;;;;;;27.50;20.35;;;;;;;-142.91;100.00;56616.03;5026632;28;20218;-64
2022/08/21 04:20:37;;;;;;;31.40;19.83;;;;;;;-142.91;100.00;56616.03;5023969;28;20919;-63
2022/08/21 04:23:04;;;;;;;25.00;20.10;;;;;;;-142.91;100.00;56616.03;5025586;28;20234;-64
2022/08/21 04:25:31;;;;;;;25.65;19.00;;;;;;;-142.91;100.00;56616.03;5025866;28;20613;-64
2022/08/21 04:27:58;;;;;;;26.60;19.27;;;;;;;-142.91;100.00;56616.03;5026541;28;20263;-63
2022/08/21 04:30:25;;;;;;;27.10;18.98;;;;;;;-142.91;100.00;56616.03;5024814;28;20349;-64
2022/08/21 04:32:53;;;;;;;25.25;18.63;;;;;;;-142.91;100.00;56616.03;5026687;28;22341;-64
2022/08/21 04:35:23;;;;;;;25.30;16.65;;;;;;;-142.91;100.00;56616.03;5029680;28;20834;-65
2022/08/21 04:37:50;;;;;;;24.65;16.60;;;;;;;-142.91;100.00;56616.03;5029629;28;20628;-64
2022/08/21 04:40:19;;;;;;;23.77;16.45;;;;;;;-142.91;100.00;56616.03;5028341;28;20300;-62
2022/08/21 04:42:50;;;;;;;23.52;15.48;;;;;;;-142.91;100.00;56616.03;5029647;28;20203;-63
2022/08/21 04:45:20;;;;;;;19.75;15.88;;;;;;;-142.91;100.00;56616.03;5029073;28;20778;-62
2022/08/21 04:47:49;;;;;;;18.00;15.23;;;;;;;-142.91;100.00;56616.03;5029532;28;20763;-63
2022/08/21 04:50:17;;;;;;;17.65;14.32;;;;;;;-142.91;100.00;56616.03;5028492;28;20299;-61
2022/08/21 04:52:44;;;;;;;17.83;13.90;;;;;;;-142.91;100.00;56616.03;5029439;28;20206;-64
2022/08/21 04:55:12;;;;;;;17.90;14.93;;;;;;;-142.91;100.00;56616.03;5030089;28;20647;-64
2022/08/21 04:57:40;;;;;;;18.08;15.30;;;;;;;-142.91;100.00;56616.03;5028975;28;20213;-64
2022/08/21 05:00:10;;;;;;;18.83;15.55;;;;;;;-142.91;100.00;56616.03;5028133;28;20214;-64
2022/08/21 05:02:38;;;;;;;22.10;15.50;;;;;;;-142.91;100.00;56616.03;5028174;28;20199;-64
2022/08/21 05:05:05;;;;;;;16.73;14.98;;;;;;;-142.91;100.00;56616.03;5028542;28;20462;-64
2022/08/21 05:07:34;;;;;;;17.55;13.10;;;;;;;-142.91;100.00;56616.03;5029274;28;20214;-65
2022/08/21 05:10:01;;;;;;;14.65;9.98;;;;;;;-142.91;100.00;56616.03;5026368;28;20229;-64
2022/08/21 05:12:28;;;;;;;17.58;9.30;;;;;;;-142.91;100.00;56616.03;5027677;28;20204;-64
2022/08/21 05:14:56;;;;;;;13.15;9.65;;;;;;;-142.91;100.00;56616.03;5027734;28;20202;-63
2022/08/21 05:17:23;;;;;;;10.95;9.10;;;;;;;-142.91;100.00;56616.03;5026138;28;20807;-64
2022/08/21 05:19:49;;;;;;;9.23;8.32;;;;;;;-142.91;100.00;56616.03;5025268;28;20212;-63
2022/08/21 05:22:21;;;;;;;16.67;8.70;;;;;;;-142.91;100.00;56616.03;5027380;28;20245;-62
2022/08/21 05:24:49;;;;;;;10.30;9.23;;;;;;;-142.91;100.00;56616.03;5026931;28;20628;-62
2022/08/21 05:27:16;;;;;;;12.43;9.50;;;;;;;-142.91;100.00;56616.03;5027999;28;20263;-63
2022/08/21 05:29:43;;;;;;;9.68;8.85;;;;;;;-142.91;100.00;56616.03;5028302;28;20206;-64
2022/08/21 05:32:11;;;;;;;10.15;9.07;;;;;;;-142.91;100.00;56616.03;5029221;28;20307;-64
2022/08/21 05:34:38;;;;;;;11.73;8.90;;;;;;;-142.91;100.00;56616.03;5029206;28;20206;-64
2022/08/21 05:37:05;;;;;;;9.55;8.63;;;;;;;-142.91;100.00;56616.03;5029204;28;20233;-64
2022/08/21 05:39:32;;;;;;;11.52;9.35;;;;;;;-142.91;100.00;56616.03;5026112;28;20725;-62
2022/08/21 05:42:00;;;;;;;14.45;9.15;;;;;;;-142.91;100.00;56616.03;5025964;28;20263;-62
2022/08/21 05:44:27;;;;;;;9.45;8.57;;;;;;;-142.91;100.00;56616.03;5028100;28;20738;-64
2022/08/21 05:46:54;;;;;;;8.82;8.02;;;;;;;-142.91;100.00;56616.03;5027636;28;20869;-64
2022/08/21 05:49:21;;;;;;;15.30;9.95;;;;;;;-142.91;100.00;56616.03;5026133;28;20269;-62
2022/08/21 05:51:47;;;;;;;12.45;9.73;;;;;;;-142.91;100.00;56616.03;5025326;28;20680;-62
2022/08/21 05:54:14;;;;;;;9.30;8.38;;;;;;;-142.91;100.00;56616.03;5027866;28;20214;-61
2022/08/21 05:56:44;;;;;;;12.23;10.73;;;;;;;-142.91;100.00;56616.03;5027283;28;20292;-63
2022/08/21 05:59:12;;;;;;;14.32;10.30;;;;;;;-142.91;100.00;56616.03;5027278;28;20206;-63
2022/08/21 06:01:41;;;;;;;12.98;9.80;;;;;;;-142.91;100.00;56616.03;5027460;28;21466;-63
2022/08/21 06:04:08;;;;;;;11.82;8.77;;;;;;;-142.91;100.00;56616.03;5026406;28;20289;-64
2022/08/21 06:06:35;;;;;;;10.43;9.43;;;;;;;-142.91;100.00;56616.03;5028709;28;20240;-64
2022/08/21 06:09:03;;;;;;;12.93;8.32;;;;;;;-142.91;100.00;56616.03;5027218;28;20711;-63
2022/08/21 06:11:30;;;;;;;13.23;9.55;;;;;;;-142.91;100.00;56616.03;5026320;28;20206;-63
2022/08/21 06:13:57;;;;;;;20.00;10.55;;;;;;;-142.91;100.00;56616.03;5027536;28;20644;-64
2022/08/21 06:16:25;;;;;;;15.07;9.77;;;;;;;-142.91;100.00;56616.03;5027605;28;20194;-64
2022/08/21 06:18:52;;;;;;;15.30;10.65;;;;;;;-142.91;100.00;56616.03;5027275;28;21152;-65
2022/08/21 06:21:19;;;;;;;12.77;11.48;;;;;;;-142.91;100.00;56616.03;5026081;28;20206;-65
2022/08/21 06:23:47;;;;;;;11.35;10.23;;;;;;;-142.91;100.00;56616.03;4988377;28;20195;-63
2022/08/21 06:26:15;;;;;;;14.25;11.98;;;;;;;-142.91;100.00;56616.03;4986585;28;20231;-65
2022/08/21 06:28:42;;;;;;;15.40;13.20;;;;;;;-142.91;100.00;56616.03;4988963;28;20491;-64
2022/08/21 06:31:14;;;;;;;16.42;13.18;;;;;;;-142.91;100.00;56616.03;4987338;28;20211;-65
2022/08/21 06:33:43;;;;;;;15.60;10.65;;;;;;;-142.91;100.00;56616.03;4987598;28;20195;-65
2022/08/21 06:36:10;;;;;;;16.50;11.30;;;;;;;-142.91;100.00;56616.03;4987707;28;20204;-65
2022/08/21 06:38:37;;;;;;;10.90;9.50;;;;;;;-142.91;100.00;56616.03;4987168;28;20705;-64
2022/08/21 06:41:04;;;;;;;10.32;8.63;;;;;;;-142.91;100.00;56616.03;4986446;28;20269;-65
2022/08/21 06:43:31;;;;;;;12.57;11.00;;;;;;;-142.91;100.00;56616.03;4986213;28;20265;-62
2022/08/21 06:45:58;;;;;;;19.75;12.48;;;;;;;-142.91;100.00;56616.03;4987414;28;20980;-64
2022/08/21 06:48:24;;;;;;;15.90;12.98;;;;;;;-142.91;100.00;56616.03;4986117;28;20702;-64
2022/08/21 06:50:53;;;;;;;16.35;13.02;;;;;;;-142.91;100.00;56616.03;4985842;28;20207;-65
2022/08/21 06:53:21;;;;;;;13.75;11.73;;;;;;;-142.91;100.00;56616.03;4986912;28;20867;-64
2022/08/21 06:55:49;;;;;;;13.63;11.57;;;;;;;-142.91;100.00;56616.03;4986637;28;20199;-64
2022/08/21 06:58:17;;;;;;;13.55;11.15;;;;;;;-142.91;100.00;56616.03;4987017;28;20298;-63
2022/08/21 07:00:46;;;;;;;20.73;13.63;;;;;;;-142.91;100.00;56616.03;4986711;28;20235;-64
2022/08/21 07:03:22;;;;;;;15.98;13.77;;;;;;;-142.91;100.00;56616.03;4986464;28;20203;-64
2022/08/21 07:05:49;;;;;;;14.50;11.02;;;;;;;-142.91;100.00;56616.03;4985105;28;20254;-65
2022/08/21 07:08:17;;;;;;;13.40;11.52;;;;;;;-142.91;100.00;56616.03;4986130;28;20223;-65
2022/08/21 07:10:44;;;;;;;17.17;13.15;;;;;;;-142.91;100.00;56616.03;4986502;28;20832;-64
2022/08/21 07:13:12;;;;;;;19.73;13.35;;;;;;;-142.91;100.00;56616.03;4987046;28;20239;-64
2022/08/21 07:15:38;;;;;;;12.75;11.45;;;;;;;-142.91;100.00;56616.03;4985744;28;20196;-64
2022/08/21 07:18:05;;;;;;;14.00;11.73;;;;;;;-142.91;100.00;56616.03;4986557;28;20675;-64
2022/08/21 07:20:33;;;;;;;16.48;12.13;;;;;;;-142.91;100.00;56616.03;4988585;28;20297;-63
2022/08/21 07:23:03;;;;;;;12.23;11.02;;;;;;;-142.91;100.00;56616.03;5013858;28;20669;-65
2022/08/21 07:25:32;;;;;;;13.77;12.40;;;;;;;-142.91;100.00;56616.03;5024101;28;20253;-62
2022/08/21 07:27:58;;;;;;;16.48;11.73;;;;;;;-142.91;100.00;56616.03;5024861;28;20715;-65
2022/08/21 07:30:25;;;;;;;12.77;11.27;;;;;;;-142.91;100.00;56616.03;5024744;28;20202;-63
2022/08/21 07:32:53;;;;;;;12.48;10.82;;;;;;;-142.91;100.00;56616.03;5026514;28;20206;-64
2022/08/21 07:35:21;;;;;;;13.95;10.20;;;;;;;-142.91;100.00;56616.03;5025342;28;20260;-65
2022/08/21 07:37:48;;;;;;;14.07;11.10;;;;;;;-142.91;100.00;56616.03;5025740;28;20234;-63
2022/08/21 07:40:16;;;;;;;17.25;12.10;;;;;;;-142.91;100.00;56616.03;5027498;28;20279;-63
2022/08/21 07:42:47;;;;;;;16.33;11.50;;;;;;;-142.91;100.00;56616.03;5027437;28;20221;-64
2022/08/21 07:45:15;;;;;;;14.52;10.93;;;;;;;-142.91;100.00;56616.03;5024868;28;20198;-65
2022/08/21 07:47:42;;;;;;;15.20;12.15;;;;;;;-142.91;100.00;56616.03;5026288;28;20213;-64
2022/08/21 07:50:09;;;;;;;15.07;12.20;;;;;;;-142.91;100.00;56616.03;5025577;28;20214;-63
2022/08/21 07:52:35;;;;;;;14.30;11.57;;;;;;;-142.91;100.00;56616.03;5025257;28;20288;-63
2022/08/21 07:55:02;;;;;;;14.15;9.88;;;;;;;-142.91;100.00;56616.03;5024564;28;20209;-63
2022/08/21 07:57:29;;;;;;;11.50;10.32;;;;;;;-142.91;100.00;56616.03;5025850;28;20202;-63
2022/08/21 07:59:57;;;;;;;11.55;10.00;;;;;;;-142.91;100.00;56616.03;5026270;28;20588;-64
2022/08/21 08:02:25;;;;;;;12.30;10.27;;;;;;;-142.91;100.00;56616.03;5025100;28;20644;-64
2022/08/21 08:04:52;;;;;;;12.98;10.98;;;;;;;-142.91;100.00;56616.03;5025800;28;20210;-65
2022/08/21 08:07:18;;;;;;;14.70;10.38;;;;;;;-142.91;100.00;56616.03;5025076;28;20233;-64
2022/08/21 08:09:45;;;;;;;11.88;10.38;;;;;;;-142.91;100.00;56616.03;5029232;28;20198;-64
2022/08/21 08:12:12;;;;;;;11.77;9.45;;;;;;;-142.91;100.00;56616.03;5030758;28;20214;-64
2022/08/21 08:14:39;;;;;;;12.07;9.00;;;;;;;-142.91;100.00;56616.03;5028535;28;20276;-64
2022/08/21 08:17:07;;;;;;;11.07;9.88;;;;;;;-142.91;100.00;56616.03;5029483;28;20303;-65
2022/08/21 08:19:34;;;;;;;10.43;9.48;;;;;;;-142.91;100.00;56616.03;5029047;28;20202;-64
2022/08/21 08:22:01;;;;;;;13.10;9.70;;;;;;;-142.91;100.00;56616.03;5029520;28;20241;-65
2022/08/21 08:24:28;;;;;;;10.98;9.80;;;;;;;-142.91;100.00;56616.03;5029978;28;20206;-64
2022/08/21 08:26:56;;;;;;;13.45;10.02;;;;;;;-142.91;100.00;56616.03;5028577;28;20267;-62
2022/08/21 08:29:23;;;;;;;12.70;9.35;;;;;;;-142.91;100.00;56616.03;5029298;28;20198;-62
2022/08/21 08:31:50;;;;;;;15.30;10.13;;;;;;;-142.91;100.00;56616.03;5030084;28;20970;-63
2022/08/21 08:34:19;;;;;;;14.70;10.00;;;;;;;-142.91;100.00;56616.03;5030022;28;20217;-63
2022/08/21 08:36:46;;;;;;;12.32;9.48;;;;;;;-142.91;100.00;56616.03;5028821;28;20268;-62
2022/08/21 08:39:13;;;;;;;10.18;9.25;;;;;;;-142.91;100.00;56616.03;5029971;28;20664;-64
2022/08/21 08:41:41;;;;;;;9.57;8.65;;;;;;;-142.91;100.00;56616.03;5028142;28;22468;-64
2022/08/21 08:44:09;;;;;;;11.23;8.60;;;;;;;-142.91;100.00;56616.03;5029268;28;20206;-64
2022/08/21 08:46:39;;;;;;;12.20;8.68;;;;;;;-142.91;100.00;56616.03;5027258;28;20310;-62
2022/08/21 08:49:13;;;;;;;10.73;7.50;;;;;;;-142.91;100.00;56616.03;5028452;28;20211;-63
2022/08/21 08:51:46;;;;;;;11.05;9.50;;;;;;;-142.91;100.00;56616.03;5027914;28;20523;-66
2022/08/21 08:54:18;;;;;;;14.93;10.90;;;;;;;-142.91;100.00;56616.03;5028245;28;20614;-64
2022/08/21 08:56:46;;;;;;;11.13;9.15;;;;;;;-142.91;100.00;56616.03;5024942;28;20203;-64
2022/08/21 08:59:18;;;;;;;12.30;9.85;;;;;;;-142.91;100.00;56616.03;5028353;28;20203;-63
2022/08/21 09:01:46;;;;;;;10.48;8.82;;;;;;;-142.91;100.00;56616.03;5028789;28;20410;-63
2022/08/21 09:04:13;;;;;;;12.82;8.25;;;;;;;-142.91;100.00;56616.03;5028217;28;20234;-64
2022/08/21 09:06:57;;;;;;;14.80;11.02;;;;;;;-142.91;100.00;56616.03;5028523;28;20225;-64
2022/08/21 09:09:35;;;;;;;19.60;13.13;;;;;;;-142.91;100.00;56616.03;5027322;28;20199;-64
2022/08/21 09:12:08;;;;;;;12.70;7.55;;;;;;;-142.91;100.00;56616.03;5027822;28;20202;-64
2022/08/21 09:14:51;;;;;;;15.85;7.60;;;;;;;-142.91;100.00;56616.03;5027706;28;20210;-65
2022/08/21 09:17:40;;;;;;;15.20;8.13;;;;;;;-142.91;100.00;56616.03;5025740;28;20690;-65
2022/08/21 09:20:19;;;;;;;10.45;7.15;;;;;;;-142.91;100.00;56616.03;5025763;28;20222;-63
2022/08/21 09:23:00;;;;;;;9.55;7.15;;;;;;;-142.91;100.00;56616.03;5027913;28;20229;-65
2022/08/21 09:25:31;;;;;;;8.15;6.70;;;;;;;-142.91;100.00;56616.03;5027141;28;20214;-64
2022/08/21 09:27:57;;;;;;;8.00;6.72;;;;;;;-142.91;100.00;56616.03;5027132;28;20230;-64
2022/08/21 09:30:27;;;;;;;8.23;7.40;;;;;;;-142.91;100.00;56616.03;5026719;28;20210;-65
2022/08/21 09:32:54;;;;;;;9.05;7.07;;;;;;;-142.91;100.00;56616.03;5027995;28;20206;-64
2022/08/21 09:35:23;;;;;;;12.32;7.55;;;;;;;-142.91;100.00;56616.03;5029324;28;20213;-65
2022/08/21 09:37:54;;;;;;;12.13;7.38;;;;;;;-142.91;100.00;56616.03;5028669;28;20209;-65
2022/08/21 09:40:33;;;;;;;8.52;6.85;;;;;;;-142.91;100.00;56616.03;5027083;28;20214;-62
2022/08/21 09:43:03;;;;;;;12.13;6.85;;;;;;;-142.91;100.00;56616.03;5027682;28;20263;-64
2022/08/21 09:45:31;;;;;;;12.73;9.80;;;;;;;-142.91;100.00;56616.03;5029024;28;20260;-64
2022/08/21 09:48:09;;;;;;;8.57;6.82;;;;;;;-142.91;100.00;56616.03;5023487;28;22278;-65
2022/08/21 09:50:36;;;;;;;9.95;6.90;;;;;;;-142.91;100.00;56616.03;5025699;28;20238;-63
2022/08/21 09:53:04;;;;;;;7.25;6.55;;;;;;;-142.91;100.00;56616.03;5028359;28;20611;-63
2022/08/21 09:58:21;;;;;;;10.60;6.28;;;;;;;-142.91;100.00;56616.03;5028016;28;20955;-64
2022/08/21 10:00:59;;;;;;;9.93;7.18;;;;;;;-142.91;100.00;56616.03;5024392;28;20763;-64
2022/08/21 10:03:26;;;;;;;11.70;7.50;;;;;;;-142.91;100.00;56616.03;5027645;28;20210;-65
2022/08/21 10:05:58;;;;;;;11.60;8.77;;;;;;;-142.91;100.00;56616.03;5025819;28;21006;-64
2022/08/21 10:08:28;;;;;;;9.55;7.13;;;;;;;-142.91;100.00;56616.03;5026978;28;20811;-65
2022/08/21 10:10:57;;;;;;;16.92;7.53;;;;;;;-142.91;100.00;56616.03;5026404;28;20625;-64
2022/08/21 10:13:34;;;;;;;11.35;7.88;;;;;;;-142.91;100.00;56616.03;5026864;28;20210;-65
2022/08/21 10:16:15;;;;;;;7.07;6.38;;;;;;;-142.91;100.00;56616.03;5027138;28;20254;-63
2022/08/21 10:18:46;;;;;;;15.60;5.22;;;;;;;-142.91;100.00;56616.03;5026090;28;20241;-62
2022/08/21 10:21:23;;;;;;;8.07;6.25;;;;;;;-142.91;100.00;56616.03;5026116;28;20286;-63
2022/08/21 10:24:02;;;;;;;9.13;6.07;;;;;;;-142.91;100.00;56616.03;5026661;28;20205;-64
2022/08/21 10:26:45;;;;;;;9.40;6.32;;;;;;;-142.91;100.00;56616.03;5026829;28;21717;-69
2022/08/21 10:29:25;;;;;;;6.97;5.75;;;;;;;-142.91;100.00;56616.03;5026059;28;20291;-65
2022/08/21 10:32:02;;;;;;;8.23;6.50;;;;;;;-142.91;100.00;56616.03;5025726;28;20222;-64
2022/08/21 10:34:39;;;;;;;10.93;5.90;;;;;;;-142.91;100.00;56616.03;5025454;28;20216;-60
2022/08/21 10:37:26;;;;;;;13.18;6.53;;;;;;;-142.91;100.00;56616.03;5025289;28;20213;-62
2022/08/21 10:40:08;;;;;;;9.32;6.82;;;;;;;-142.91;100.00;56616.03;5024694;28;22416;-63
2022/08/21 10:42:47;;;;;;;9.02;6.65;;;;;;;-142.91;100.00;56616.03;5022877;28;20200;-61
2022/08/21 10:45:26;;;;;;;11.68;6.85;;;;;;;-142.91;100.00;56616.03;5026080;28;20202;-63
2022/08/21 10:47:55;;;;;;;11.35;7.13;;;;;;;-142.91;100.00;56616.03;5025240;28;20310;-63
2022/08/21 10:50:31;;;;;;;12.48;7.85;;;;;;;-142.91;100.00;56616.03;5025426;28;20316;-62
2022/08/21 10:53:16;;;;;;;10.13;6.25;;;;;;;-142.91;100.00;56616.03;5024380;28;20210;-62
2022/08/21 10:55:52;;;;;;;12.15;6.15;;;;;;;-142.91;100.00;56616.03;5025102;28;20202;-63
2022/08/21 10:58:29;;;;;;;12.30;6.95;;;;;;;-142.91;100.00;56616.03;5024788;28;20202;-63
2022/08/21 11:01:01;;;;;;;9.70;6.00;;;;;;;-142.91;100.00;56616.03;5025572;28;20213;-65
2022/08/21 11:03:34;;;;;;;7.25;6.20;;;;;;;-142.91;100.00;56616.03;5025660;28;20648;-65
2022/08/21 11:06:07;;;;;;;12.48;6.68;;;;;;;-142.91;100.00;56616.03;5025333;28;20629;-61
2022/08/21 11:08:39;;;;;;;8.02;6.10;;;;;;;-142.91;100.00;56616.03;5026445;28;20229;-63
2022/08/21 11:11:13;;;;;;;9.30;7.53;;;;;;;-142.91;100.00;56616.03;5023584;28;21857;-64